createdAt,value
2023-02-19T00:02:18.501Z,96690.25
2023-02-19T00:06:33.442Z,96682.59
2023-02-19T00:10:45.878Z,96688.59
2023-02-19T00:14:59.773Z,96672.53
2023-02-19T00:19:22.419Z,96670.28
2023-02-19T00:23:35.185Z,96671.97
2023-02-19T00:27:47.642Z,96666.00
2023-02-19T00:32:00.195Z,96670.59
2023-02-19T00:36:14.145Z,96638.00
2023-02-19T00:40:26.943Z,96654.63
2023-02-19T00:44:39.385Z,96647.53
2023-02-19T00:48:53.430Z,96637.88
2023-02-19T00:53:05.909Z,96632.19
2023-02-19T00:57:18.319Z,96639.25
2023-02-19T01:01:30.834Z,96628.47
2023-02-19T01:05:43.276Z,96621.88
2023-02-19T01:09:55.723Z,96578.06
2023-02-19T01:14:08.175Z,96628.69
2023-02-19T01:18:21.047Z,96630.34
2023-02-19T01:22:33.552Z,96619.47
2023-02-19T01:26:46.006Z,96613.13
2023-02-19T01:31:06.724Z,96625.94
2023-02-19T01:35:19.224Z,96615.81
2023-02-19T01:39:31.832Z,96613.50
2023-02-19T01:44:08.917Z,96596.75
2023-02-19T01:48:27.262Z,96590.25
2023-02-19T01:52:39.742Z,96592.88
2023-02-19T01:56:53.242Z,96593.19
2023-02-19T02:01:09.011Z,96590.13
2023-02-19T02:05:35.883Z,96591.38
2023-02-19T02:10:06.824Z,96573.81
2023-02-19T02:14:25.941Z,96571.84
2023-02-19T02:19:24.606Z,96561.84
2023-02-19T02:24:03.848Z,96575.22
2023-02-19T02:28:22.316Z,96563.53
2023-02-19T02:32:54.093Z,96549.53
2023-02-19T02:37:08.926Z,96553.69
2023-02-19T02:41:22.677Z,96540.47
2023-02-19T02:45:38.146Z,96538.81
2023-02-19T02:50:05.902Z,96545.72
2023-02-19T02:54:41.764Z,96529.44
2023-02-19T02:58:57.618Z,96516.50
2023-02-19T03:03:10.049Z,96503.72
2023-02-19T03:07:22.551Z,96509.41
2023-02-19T03:11:57.890Z,96529.34
2023-02-19T03:16:38.030Z,96513.78
2023-02-19T03:20:55.621Z,96531.75
2023-02-19T03:25:37.883Z,96517.88
2023-02-19T03:29:53.205Z,96512.63
2023-02-19T03:34:12.757Z,96510.03
2023-02-19T03:38:39.853Z,96519.78
2023-02-19T03:43:18.772Z,96522.78
2023-02-19T03:47:38.680Z,96511.81
2023-02-19T03:52:01.471Z,96514.69
2023-02-19T03:56:37.287Z,96509.78
2023-02-19T04:01:05.558Z,96524.19
2023-02-19T04:05:23.769Z,96528.22
2023-02-19T04:09:45.622Z,96526.81
2023-02-19T04:14:10.185Z,96518.34
2023-02-19T04:18:29.783Z,96500.28
2023-02-19T04:22:43.100Z,96515.16
2023-02-19T04:26:56.843Z,96532.44
2023-02-19T04:31:10.148Z,96521.44
2023-02-19T04:35:23.058Z,96520.13
2023-02-19T04:39:43.535Z,96530.34
2023-02-19T04:43:56.004Z,96537.19
2023-02-19T04:48:08.425Z,96524.88
2023-02-19T04:52:20.873Z,96523.72
2023-02-19T04:56:33.307Z,96523.53
2023-02-19T05:00:45.731Z,96534.44
2023-02-19T05:04:58.210Z,96536.41
2023-02-19T05:09:10.724Z,96543.47
2023-02-19T05:13:23.159Z,96521.75
2023-02-19T05:17:36.267Z,96537.09
2023-02-19T05:21:48.747Z,96530.03
2023-02-19T05:26:07.454Z,96543.88
2023-02-19T05:30:20.165Z,96562.38
2023-02-19T05:34:32.694Z,96549.06
2023-02-19T05:38:45.184Z,96554.13
2023-02-19T05:42:57.663Z,96561.38
2023-02-19T05:47:10.305Z,96554.91
2023-02-19T05:51:25.864Z,96574.41
2023-02-19T05:55:38.443Z,96570.00
2023-02-19T05:59:50.914Z,96564.38
2023-02-19T06:04:03.785Z,96573.75
2023-02-19T06:08:17.256Z,96573.19
2023-02-19T06:12:29.791Z,96575.41
2023-02-19T06:16:42.993Z,96576.72
2023-02-19T06:20:55.433Z,96581.00
2023-02-19T06:25:12.998Z,96585.44
2023-02-19T06:29:26.272Z,96589.94
2023-02-19T06:33:47.595Z,96581.41
2023-02-19T06:38:00.128Z,96587.50
2023-02-19T06:42:12.547Z,96599.81
2023-02-19T06:46:25.044Z,96613.81
2023-02-19T06:50:37.491Z,96621.50
2023-02-19T06:54:49.943Z,96625.91
2023-02-19T06:59:20.155Z,96634.09
2023-02-19T07:03:42.626Z,96641.19
2023-02-19T07:07:55.173Z,96648.34
2023-02-19T07:12:08.037Z,96648.41
2023-02-19T07:16:20.517Z,96647.31
2023-02-19T07:20:33.050Z,96660.50
2023-02-19T07:24:47.791Z,96643.38
2023-02-19T07:29:00.482Z,96668.59
2023-02-19T07:33:12.965Z,96671.03
2023-02-19T07:37:25.596Z,96683.16
2023-02-19T07:41:38.076Z,96701.34
2023-02-19T07:45:51.150Z,96684.94
2023-02-19T07:50:03.856Z,96707.31
2023-02-19T07:54:26.335Z,96721.88
2023-02-19T07:58:39.213Z,96719.69
2023-02-19T08:03:00.747Z,96746.47
2023-02-19T08:07:13.263Z,96744.72
2023-02-19T08:11:44.375Z,96749.69
2023-02-19T08:16:18.474Z,96750.78
2023-02-19T08:20:34.442Z,96741.53
2023-02-19T08:24:46.868Z,96769.09
2023-02-19T08:28:59.863Z,96759.28
2023-02-19T08:33:20.942Z,96763.91
2023-02-19T08:37:33.397Z,96747.31
2023-02-19T08:41:46.099Z,96763.00
2023-02-19T08:45:58.668Z,96764.66
2023-02-19T08:50:12.663Z,96770.91
2023-02-19T08:54:25.102Z,96769.91
2023-02-19T08:58:38.256Z,96795.34
2023-02-19T09:02:51.272Z,96775.31
2023-02-19T09:07:03.764Z,96781.50
2023-02-19T09:11:16.400Z,96802.88
2023-02-19T09:15:30.321Z,96779.03
2023-02-19T09:19:45.136Z,96765.97
2023-02-19T09:23:57.701Z,96806.28
2023-02-19T09:28:10.303Z,96803.34
2023-02-19T09:32:22.767Z,96796.06
2023-02-19T09:36:35.381Z,96800.59
2023-02-19T09:40:47.877Z,96778.53
2023-02-19T09:45:02.547Z,96819.66
2023-02-19T09:49:19.543Z,96808.16
2023-02-19T09:53:42.166Z,96815.44
2023-02-19T09:57:55.014Z,96791.47
2023-02-19T10:02:24.641Z,96815.56
2023-02-19T10:06:38.853Z,96808.72
2023-02-19T10:10:57.670Z,96802.34
2023-02-19T10:15:19.966Z,96821.78
2023-02-19T10:19:34.629Z,96816.19
2023-02-19T10:23:50.244Z,96811.00
2023-02-19T10:28:03.726Z,96828.63
2023-02-19T10:32:24.808Z,96821.00
2023-02-19T10:36:43.274Z,96839.38
2023-02-19T10:41:05.827Z,96841.38
2023-02-19T10:45:27.611Z,96866.25
2023-02-19T10:49:52.290Z,96834.06
2023-02-19T10:54:26.311Z,96845.94
2023-02-19T10:58:40.907Z,96830.75
2023-02-19T11:03:22.374Z,96828.28
2023-02-19T11:07:36.930Z,96838.81
2023-02-19T11:12:00.267Z,96822.41
2023-02-19T11:16:12.736Z,96816.91
2023-02-19T11:20:25.550Z,96810.81
2023-02-19T11:24:41.325Z,96813.97
2023-02-19T11:29:02.837Z,96815.19
2023-02-19T11:33:18.290Z,96805.56
2023-02-19T11:37:31.084Z,96814.38
2023-02-19T11:42:29.495Z,96831.41
2023-02-19T11:47:19.091Z,96865.91
2023-02-19T11:52:15.048Z,96829.63
2023-02-19T11:56:40.163Z,96821.22
2023-02-19T12:01:16.562Z,96833.25
2023-02-19T12:05:56.747Z,96831.88
2023-02-19T12:10:28.167Z,96815.75
2023-02-19T12:14:54.876Z,96830.72
2023-02-19T12:19:52.577Z,96832.81
2023-02-19T12:24:56.265Z,96828.56
2023-02-19T12:29:40.842Z,96832.28
2023-02-19T12:34:29.840Z,96839.56
2023-02-19T12:38:59.151Z,96870.19
2023-02-19T12:43:25.235Z,96864.75
2023-02-19T12:47:41.838Z,96872.06
2023-02-19T12:52:08.382Z,96867.06
2023-02-19T12:56:31.909Z,96870.53
2023-02-19T13:00:59.835Z,96876.31
2023-02-19T13:05:40.887Z,96856.16
2023-02-19T13:10:42.020Z,96865.78
2023-02-19T13:15:14.222Z,96863.53
2023-02-19T13:19:26.855Z,96864.22
2023-02-19T13:24:03.670Z,96861.63
2023-02-19T13:29:00.190Z,96869.28
2023-02-19T13:33:21.791Z,96858.81
2023-02-19T13:37:41.422Z,96850.19
2023-02-19T13:41:59.815Z,96866.72
2023-02-19T13:46:17.169Z,96840.28
2023-02-19T13:50:33.390Z,96861.88
2023-02-19T13:54:45.837Z,96862.78
2023-02-19T13:59:11.831Z,96863.56
2023-02-19T14:03:31.375Z,96837.00
2023-02-19T14:07:54.536Z,96839.44
2023-02-19T14:12:16.416Z,96856.41
2023-02-19T14:16:40.615Z,96857.50
2023-02-19T14:21:38.793Z,96854.22
2023-02-19T14:26:00.536Z,96874.41
2023-02-19T14:30:14.717Z,96873.38
2023-02-19T14:34:28.009Z,96869.38
2023-02-19T14:38:49.148Z,96873.88
2023-02-19T14:43:02.398Z,96875.00
2023-02-19T14:47:28.599Z,96891.06
2023-02-19T14:51:44.973Z,96884.63
2023-02-19T14:55:59.520Z,96890.91
2023-02-19T15:00:30.692Z,96890.22
2023-02-19T15:04:43.156Z,96885.63
2023-02-19T15:09:05.105Z,96867.94
2023-02-19T15:13:26.151Z,96903.94
2023-02-19T15:17:41.929Z,96903.69
2023-02-19T15:21:55.907Z,96919.41
2023-02-19T15:26:23.744Z,96931.00
2023-02-19T15:30:36.206Z,96922.00
2023-02-19T15:35:00.538Z,96939.09
2023-02-19T15:39:22.508Z,96936.56
2023-02-19T15:43:45.123Z,96935.56
2023-02-19T15:48:06.199Z,96934.38
2023-02-19T15:52:57.801Z,96929.81
2023-02-19T15:57:19.131Z,96929.50
2023-02-19T16:01:36.949Z,96934.59
2023-02-19T16:06:23.979Z,96939.78
2023-02-19T16:10:36.484Z,96934.09
2023-02-19T16:14:50.050Z,96935.53
2023-02-19T16:19:02.591Z,96948.81
2023-02-19T16:23:21.443Z,96946.72
2023-02-19T16:27:42.593Z,96947.88
2023-02-19T16:32:01.907Z,96960.13
2023-02-19T16:36:24.692Z,96962.88
2023-02-19T16:40:46.152Z,96976.84
2023-02-19T16:44:58.604Z,96978.69
2023-02-19T16:49:12.058Z,96996.16
2023-02-19T16:53:26.140Z,96995.84
2023-02-19T16:57:38.604Z,97001.03
2023-02-19T17:01:51.211Z,97002.31
2023-02-19T17:06:03.671Z,97020.66
2023-02-19T17:10:23.806Z,97016.72
2023-02-19T17:14:36.258Z,97019.31
2023-02-19T17:18:49.052Z,97015.56
2023-02-19T17:23:01.544Z,97026.56
2023-02-19T17:27:14.934Z,97028.75
2023-02-19T17:31:28.158Z,97026.16
2023-02-19T17:35:40.842Z,97052.81
2023-02-19T17:39:53.338Z,97047.91
2023-02-19T17:44:05.827Z,97041.56
2023-02-19T17:48:18.349Z,97050.25
2023-02-19T17:52:31.026Z,97068.69
2023-02-19T17:56:46.751Z,97073.84
2023-02-19T18:00:59.251Z,97081.28
2023-02-19T18:05:12.431Z,97087.66
2023-02-19T18:09:24.965Z,97094.69
2023-02-19T18:13:37.585Z,97104.59
2023-02-19T18:17:50.187Z,97108.06
2023-02-19T18:22:06.286Z,97125.00
2023-02-19T18:26:23.043Z,97134.56
2023-02-19T18:30:35.530Z,97141.50
2023-02-19T18:34:56.186Z,97141.69
2023-02-19T18:39:08.605Z,97139.44
2023-02-19T18:43:21.104Z,97143.16
2023-02-19T18:47:33.723Z,97148.94
2023-02-19T18:51:51.009Z,97150.72
2023-02-19T18:56:06.026Z,97162.34
2023-02-19T19:00:23.542Z,97163.69
2023-02-19T19:04:38.440Z,97163.78
2023-02-19T19:08:55.284Z,97161.81
2023-02-19T19:13:07.919Z,97161.66
2023-02-19T19:17:20.542Z,97166.31
2023-02-19T19:21:33.509Z,97166.44
2023-02-19T19:25:45.961Z,97162.84
2023-02-19T19:29:58.389Z,97164.25
2023-02-19T19:34:12.320Z,97170.84
2023-02-19T19:38:24.933Z,97178.34
2023-02-19T19:42:37.378Z,97167.25
2023-02-19T19:46:50.925Z,97165.97
2023-02-19T19:51:03.374Z,97162.53
2023-02-19T19:55:16.840Z,97155.16
2023-02-19T19:59:29.356Z,97169.78
2023-02-19T20:03:41.865Z,97164.44
2023-02-19T20:07:55.626Z,97183.41
2023-02-19T20:12:08.603Z,97177.19
2023-02-19T20:16:29.126Z,97181.84
2023-02-19T20:20:41.552Z,97176.56
2023-02-19T20:24:56.049Z,97183.47
2023-02-19T20:29:09.286Z,97188.97
2023-02-19T20:33:31.723Z,97189.97
2023-02-19T20:37:44.809Z,97180.25
2023-02-19T20:41:59.077Z,97180.59
2023-02-19T20:46:12.623Z,97180.47
2023-02-19T20:50:26.519Z,97183.41
2023-02-19T20:54:39.172Z,97195.97
2023-02-19T20:58:51.640Z,97192.78
2023-02-19T21:03:04.552Z,97194.69
2023-02-19T21:07:17.563Z,97201.47
2023-02-19T21:11:40.443Z,97197.72
2023-02-19T21:15:54.064Z,97193.13
2023-02-19T21:20:20.911Z,97207.47
2023-02-19T21:24:33.606Z,97206.81
2023-02-19T21:28:46.380Z,97211.47
2023-02-19T21:32:58.910Z,97185.59
2023-02-19T21:37:21.390Z,97192.56
2023-02-19T21:41:34.097Z,97191.16
2023-02-19T21:45:46.646Z,97194.97
2023-02-19T21:49:59.206Z,97195.31
2023-02-19T21:54:25.452Z,97182.13
2023-02-19T21:58:38.742Z,97181.44
2023-02-19T22:02:51.390Z,97174.44
2023-02-19T22:07:03.916Z,97170.50
2023-02-19T22:11:16.421Z,97188.19
2023-02-19T22:15:28.879Z,97191.94
2023-02-19T22:19:41.463Z,97178.91
2023-02-19T22:23:55.477Z,97191.25
2023-02-19T22:28:08.579Z,97191.03
2023-02-19T22:32:21.162Z,97204.16
2023-02-19T22:36:38.009Z,97212.53
2023-02-19T22:40:50.429Z,97218.78
2023-02-19T22:45:02.977Z,97215.59
2023-02-19T22:49:15.669Z,97209.88
2023-02-19T22:53:29.116Z,97211.06
2023-02-19T22:57:41.530Z,97216.97
2023-02-19T23:01:54.340Z,97211.56
2023-02-19T23:06:06.899Z,97223.19
2023-02-19T23:10:19.394Z,97231.09
2023-02-19T23:14:31.982Z,97232.72
2023-02-19T23:18:44.475Z,97238.38
2023-02-19T23:22:57.255Z,97243.78
2023-02-19T23:27:09.706Z,97247.81
2023-02-19T23:31:22.718Z,97227.66
2023-02-19T23:35:35.165Z,97230.94
2023-02-19T23:39:47.597Z,97240.13
2023-02-19T23:43:59.995Z,97248.94
2023-02-19T23:48:12.424Z,97250.47
2023-02-19T23:52:24.916Z,97241.03
2023-02-19T23:56:37.362Z,97236.72
